White Plains, Kentucky
Current Conditions -  °F | °C
As of 2:15 AM on Tuesday 21 Oct 2014 (Local Time) from K2I0 Reporting Station
Clear Clear  
Wind Chill: 11°   Ceiling: Unl
Heat Index: 11°   Visibility: 10mi
Dew Point: 10°   Wind: 3mph
Humidity: 95%   Direction: 230°SW
Pressure: 30.01"   Gusts: NA
Location:  37.18°N, 87.38°W
Report Text: K2I0 210715Z AUTO 23003KT 10SM CLR 11/10 A3001 RMK AO2 T01100102
Loading
Personal Weather Stations






























Interactive Weather Map
Tropical Storm Tracking
New forecast layout! Learn more

10-Day Weather Forecast

Advertisements
Track Severe Weather on mobile